Time;durP1;ratioP1;P1;durP2;ratioP2;P2;SDS_P1;SDS_P2;PMS_P1;PMS_P2;Temp;Humidity;BMP_temperature;BMP_pressure;BME280_temperature;BME280_humidity;BME280_pressure;Samples;Min_cycle;Max_cycle;Signal;HPM_P1;HPM_P2
2023/10/16 00:01:29;;;;;;;0.00;0.00;;;19.80;41.50;;;;;;5095460;28;20280;-52
2023/10/16 00:04:01;;;;;;;0.10;0.10;;;19.80;41.50;;;;;;5092034;28;20572;-54
2023/10/16 00:06:33;;;;;;;0.10;0.10;;;19.80;41.40;;;;;;5074885;28;20207;-49
2023/10/16 00:09:10;;;;;;;0.10;0.10;;;19.80;41.40;;;;;;5074683;28;20207;-50
2023/10/16 00:11:41;;;;;;;0.00;0.00;;;19.80;41.40;;;;;;5074577;28;20286;-52
2023/10/16 00:14:22;;;;;;;0.10;0.10;;;19.80;41.40;;;;;;5092197;28;20197;-50
2023/10/16 00:16:53;;;;;;;0.10;0.10;;;19.90;41.40;;;;;;5094334;28;20583;-53
2023/10/16 00:19:26;;;;;;;0.10;0.10;;;19.90;41.40;;;;;;5094543;28;20194;-51
2023/10/16 00:21:57;;;;;;;0.10;0.10;;;19.90;41.40;;;;;;5094602;28;20280;-51
2023/10/16 00:24:28;;;;;;;0.10;0.10;;;19.90;41.40;;;;;;5095017;28;20194;-51
2023/10/16 00:27:00;;;;;;;0.08;0.08;;;19.90;41.40;;;;;;5094795;28;20627;-50
2023/10/16 00:29:35;;;;;;;0.10;0.10;;;19.90;41.40;;;;;;5094821;28;20193;-46
2023/10/16 00:32:07;;;;;;;0.10;0.10;;;19.90;41.40;;;;;;5095165;28;20190;-50
2023/10/16 00:34:40;;;;;;;0.10;0.10;;;20.00;41.50;;;;;;5086395;28;20667;-49
2023/10/16 00:37:12;;;;;;;0.00;0.00;;;20.00;41.50;;;;;;5074387;28;20591;-51
2023/10/16 00:39:42;;;;;;;0.10;0.10;;;20.00;41.50;;;;;;5074684;28;20253;-49
2023/10/16 00:42:13;;;;;;;0.05;0.05;;;20.00;41.50;;;;;;5074095;28;20199;-47
2023/10/16 00:44:44;;;;;;;0.00;0.00;;;20.00;41.50;;;;;;5074531;28;20199;-50
2023/10/16 00:47:14;;;;;;;0.10;0.10;;;20.00;41.50;;;;;;5074205;28;20211;-53
2023/10/16 00:49:49;;;;;;;0.10;0.10;;;20.10;42.00;;;;;;5073476;28;20191;-52
2023/10/16 00:52:21;;;;;;;0.10;0.10;;;20.10;41.50;;;;;;5074137;28;20252;-53
2023/10/16 00:54:53;;;;;;;0.10;0.10;;;20.10;41.50;;;;;;5087765;28;20213;-53
2023/10/16 00:57:27;;;;;;;0.10;0.10;;;20.10;41.50;;;;;;5093901;28;20634;-53
2023/10/16 00:59:59;;;;;;;0.10;0.10;;;20.10;41.50;;;;;;5093719;28;20190;-49
2023/10/16 01:02:33;;;;;;;0.10;0.10;;;20.20;41.50;;;;;;5093962;28;20280;-50
2023/10/16 01:05:07;;;;;;;0.10;0.10;;;20.20;41.50;;;;;;5094098;28;20206;-51
2023/10/16 01:07:38;;;;;;;0.10;0.10;;;20.20;41.50;;;;;;5093882;28;20249;-47
2023/10/16 01:10:10;;;;;;;0.10;0.10;;;20.20;42.10;;;;;;5094115;28;20224;-49
2023/10/16 01:12:54;;;;;;;0.00;0.00;;;20.30;41.50;;;;;;5093808;28;20190;-53
2023/10/16 01:15:25;;;;;;;0.10;0.10;;;20.30;41.50;;;;;;5088505;28;20191;-49
2023/10/16 01:17:56;;;;;;;0.10;0.10;;;20.30;41.50;;;;;;5073646;28;20272;-48
2023/10/16 01:20:28;;;;;;;0.10;0.10;;;20.30;41.60;;;;;;5073855;28;20647;-50
2023/10/16 01:22:59;;;;;;;0.10;0.10;;;20.30;41.60;;;;;;5073657;28;20198;-51
2023/10/16 01:25:32;;;;;;;0.10;0.10;;;20.30;41.50;;;;;;5073488;28;20202;-50
2023/10/16 01:28:04;;;;;;;0.10;0.10;;;20.40;41.60;;;;;;5073382;28;20222;-52
2023/10/16 01:30:35;;;;;;;0.00;0.00;;;20.40;41.60;;;;;;5072995;28;20195;-53
2023/10/16 01:33:07;;;;;;;0.10;0.10;;;20.40;41.60;;;;;;5073272;28;20277;-49
2023/10/16 01:35:38;;;;;;;0.10;0.10;;;20.40;41.50;;;;;;5073080;28;20672;-49
2023/10/16 01:38:14;;;;;;;0.17;0.17;;;20.50;41.50;;;;;;5088646;28;20246;-49
2023/10/16 01:41:09;;;;;;;0.10;0.10;;;20.50;41.50;;;;;;5094000;28;20201;-50
2023/10/16 01:43:40;;;;;;;0.10;0.10;;;20.50;41.50;;;;;;5093204;28;20198;-50
2023/10/16 01:46:14;;;;;;;0.10;0.10;;;20.50;41.50;;;;;;5093188;28;20596;-47
2023/10/16 01:48:46;;;;;;;0.10;0.10;;;20.60;41.50;;;;;;5093205;28;20636;-52
2023/10/16 01:51:20;;;;;;;0.10;0.10;;;20.60;41.40;;;;;;5093153;28;20204;-50
2023/10/16 01:53:51;;;;;;;0.10;0.10;;;20.60;41.50;;;;;;5093105;28;20236;-50
2023/10/16 01:56:24;;;;;;;0.10;0.10;;;20.60;41.50;;;;;;5093096;28;20225;-52
2023/10/16 01:58:54;;;;;;;0.10;0.10;;;20.60;41.50;;;;;;5093029;28;20218;-54
2023/10/16 02:01:25;;;;;;;0.10;0.10;;;20.60;41.40;;;;;;5092925;28;20210;-48
2023/10/16 02:03:56;;;;;;;0.10;0.10;;;20.70;41.50;;;;;;5090434;28;20201;-48
2023/10/16 02:06:27;;;;;;;0.10;0.10;;;20.70;41.50;;;;;;5072766;28;20198;-47
2023/10/16 02:08:59;;;;;;;0.10;0.10;;;20.70;41.50;;;;;;5072666;28;20214;-48
2023/10/16 02:11:32;;;;;;;0.10;0.10;;;20.70;41.50;;;;;;5072285;28;20227;-51
2023/10/16 02:14:02;;;;;;;0.08;0.08;;;20.70;41.50;;;;;;5072471;28;20194;-53
2023/10/16 02:16:34;;;;;;;0.08;0.08;;;20.70;41.50;;;;;;5091835;28;20218;-46
2023/10/16 02:19:05;;;;;;;0.10;0.10;;;20.80;41.50;;;;;;5092749;28;20263;-47
2023/10/16 02:21:37;;;;;;;0.05;0.05;;;20.80;41.60;;;;;;5092808;28;20217;-44
2023/10/16 02:24:08;;;;;;;0.10;0.10;;;20.80;41.60;;;;;;5092488;28;20197;-43
2023/10/16 02:26:55;;;;;;;0.10;0.10;;;20.80;41.50;;;;;;5092554;28;20194;-42
2023/10/16 02:29:31;;;;;;;0.10;0.10;;;20.80;41.50;;;;;;5092735;28;20198;-46
2023/10/16 02:32:03;;;;;;;0.10;0.10;;;20.90;41.50;;;;;;5092404;28;20193;-46
2023/10/16 02:34:36;;;;;;;0.00;0.00;;;20.90;41.50;;;;;;5085027;28;20203;-49
2023/10/16 02:37:09;;;;;;;0.10;0.10;;;21.00;41.60;;;;;;5072118;28;20292;-53
2023/10/16 02:39:41;;;;;;;0.10;0.10;;;21.00;41.50;;;;;;5072656;28;20199;-50
2023/10/16 02:42:14;;;;;;;0.10;0.10;;;21.00;41.50;;;;;;5071732;28;20567;-49
2023/10/16 02:44:45;;;;;;;0.10;0.10;;;21.10;41.50;;;;;;5071871;28;20552;-50
2023/10/16 02:47:21;;;;;;;0.00;0.00;;;21.10;41.50;;;;;;5071805;28;20191;-48
2023/10/16 02:49:52;;;;;;;0.10;0.10;;;21.10;41.40;;;;;;5071955;28;20268;-47
2023/10/16 02:52:24;;;;;;;0.10;0.10;;;21.10;41.50;;;;;;5078688;28;20194;-49
2023/10/16 02:54:57;;;;;;;0.10;0.10;;;21.10;41.50;;;;;;5091727;28;20642;-49
2023/10/16 02:57:30;;;;;;;0.10;0.10;;;21.10;41.50;;;;;;5091885;28;20316;-47
2023/10/16 03:00:04;;;;;;;0.10;0.10;;;21.20;41.50;;;;;;5092155;28;20190;-50
2023/10/16 03:02:39;;;;;;;0.10;0.10;;;21.20;41.50;;;;;;5092161;28;20201;-46
2023/10/16 03:05:21;;;;;;;0.10;0.10;;;21.20;41.50;;;;;;5091886;28;20293;-46
2023/10/16 03:07:52;;;;;;;0.10;0.10;;;21.30;41.60;;;;;;5091311;28;20213;-47
2023/10/16 03:10:26;;;;;;;0.10;0.10;;;21.30;41.60;;;;;;5080762;28;20711;-50
2023/10/16 03:13:05;;;;;;;0.10;0.10;;;21.30;41.60;;;;;;5071005;28;20238;-48
2023/10/16 03:15:43;;;;;;;0.10;0.10;;;21.40;41.60;;;;;;5071710;28;20642;-47
2023/10/16 03:18:18;;;;;;;0.10;0.10;;;21.30;41.50;;;;;;5071127;28;20299;-49
2023/10/16 03:20:50;;;;;;;0.10;0.10;;;21.40;41.60;;;;;;5071310;28;20263;-50
2023/10/16 03:23:21;;;;;;;0.10;0.10;;;21.40;41.60;;;;;;5071433;28;20191;-48
2023/10/16 03:25:54;;;;;;;0.00;0.00;;;21.40;41.60;;;;;;5071188;28;20606;-48
2023/10/16 03:28:27;;;;;;;0.00;0.00;;;21.50;41.60;;;;;;5071121;28;20218;-49
2023/10/16 03:31:03;;;;;;;0.10;0.10;;;21.50;41.60;;;;;;5072212;28;20582;-49
2023/10/16 03:33:35;;;;;;;0.10;0.10;;;21.50;41.50;;;;;;5087847;28;20198;-47
2023/10/16 03:36:09;;;;;;;0.10;0.10;;;21.60;41.50;;;;;;5088774;28;20229;-50
2023/10/16 03:38:41;;;;;;;0.05;0.05;;;21.60;41.50;;;;;;5086942;28;20704;-50
2023/10/16 03:41:28;;;;;;;0.00;0.00;;;21.60;41.40;;;;;;5090583;28;20610;-49
2023/10/16 03:44:07;;;;;;;0.10;0.10;;;21.60;41.30;;;;;;5090527;28;20201;-51
2023/10/16 03:46:39;;;;;;;0.03;0.03;;;21.60;41.30;;;;;;5090491;28;20197;-47
2023/10/16 03:49:11;;;;;;;0.10;0.10;;;21.70;41.30;;;;;;5091063;28;20389;-50
2023/10/16 03:51:44;;;;;;;0.00;0.00;;;21.70;41.30;;;;;;5090765;28;20202;-47
2023/10/16 03:54:16;;;;;;;0.10;0.10;;;21.70;41.30;;;;;;5091625;28;20194;-51
2023/10/16 03:56:46;;;;;;;0.03;0.03;;;21.70;41.30;;;;;;5091087;28;20229;-49
2023/10/16 03:59:19;;;;;;;0.10;0.10;;;21.70;41.20;;;;;;5090897;28;20674;-50
2023/10/16 04:01:50;;;;;;;0.00;0.00;;;21.70;41.20;;;;;;5090848;28;20476;-47
2023/10/16 04:04:24;;;;;;;0.00;0.00;;;21.80;41.10;;;;;;5084872;28;20199;-50
2023/10/16 04:06:56;;;;;;;0.00;0.00;;;21.80;41.00;;;;;;5071097;28;20202;-51
2023/10/16 04:09:30;;;;;;;0.10;0.10;;;21.80;41.00;;;;;;5071259;28;20673;-50
2023/10/16 04:12:04;;;;;;;0.10;0.10;;;21.80;41.00;;;;;;5071050;28;20195;-54
2023/10/16 04:14:50;;;;;;;0.10;0.10;;;21.80;41.00;;;;;;5071191;28;20199;-49
2023/10/16 04:17:24;;;;;;;0.00;0.00;;;21.80;41.00;;;;;;5071027;28;20223;-48
2023/10/16 04:20:00;;;;;;;0.10;0.10;;;21.90;41.00;;;;;;5071242;28;20199;-50
2023/10/16 04:22:49;;;;;;;0.10;0.10;;;21.90;40.90;;;;;;5070817;28;20199;-47
2023/10/16 04:43:15;;;;;;;0.00;0.00;;;21.90;40.80;;;;;;5074540;28;20235;-50
2023/10/16 04:46:16;;;;;;;0.10;0.10;;;21.90;40.90;;;;;;5074237;28;20584;-45
2023/10/16 04:48:51;;;;;;;0.10;0.10;;;22.00;40.90;;;;;;5074559;28;20708;-49
2023/10/16 04:51:36;;;;;;;0.10;0.10;;;22.00;40.80;;;;;;5074228;28;20547;-49
2023/10/16 04:54:27;;;;;;;0.10;0.10;;;22.00;40.80;;;;;;5073765;28;20555;-52
2023/10/16 04:57:37;;;;;;;0.10;0.10;;;22.00;40.60;;;;;;5093021;28;20595;-53
2023/10/16 05:00:27;;;;;;;0.00;0.00;;;22.10;40.60;;;;;;5093762;28;20201;-50
2023/10/16 05:03:22;;;;;;;0.10;0.10;;;22.10;40.60;;;;;;5093954;28;20541;-50
2023/10/16 05:06:05;;;;;;;0.00;0.00;;;22.10;40.50;;;;;;5082085;28;20222;-44
2023/10/16 05:08:59;;;;;;;0.10;0.10;;;22.10;40.40;;;;;;5073364;28;20219;-46
2023/10/16 05:11:33;;;;;;;0.00;0.00;;;22.20;40.30;;;;;;5073349;28;20183;-47
2023/10/16 05:17:07;;;;;;;0.03;0.03;;;22.30;40.30;;;;;;5073414;28;20222;-48
2023/10/16 05:19:45;;;;;;;0.10;0.10;;;22.30;40.20;;;;;;5073526;28;20191;-47
2023/10/16 06:15:26;;;;;;;0.10;0.10;;;22.60;40.00;;;;;;5093159;28;20193;-47
2023/10/16 06:18:04;;;;;;;0.00;0.00;;;22.50;39.60;;;;;;5092702;28;20586;-48
2023/10/16 06:20:37;;;;;;;0.08;0.08;;;22.50;39.50;;;;;;5093027;28;20590;-50
2023/10/16 06:23:11;;;;;;;0.10;0.10;;;22.50;39.40;;;;;;5092371;28;20276;-49
2023/10/16 06:25:47;;;;;;;0.10;0.10;;;22.50;39.30;;;;;;5092603;28;20340;-47
2023/10/16 06:28:19;;;;;;;0.00;0.00;;;22.50;39.30;;;;;;5092399;28;20683;-50
2023/10/16 06:30:50;;;;;;;0.10;0.10;;;22.50;39.30;;;;;;5092859;28;20190;-50
2023/10/16 06:33:21;;;;;;;0.10;0.10;;;22.50;39.30;;;;;;5081581;28;20729;-47
2023/10/16 06:35:54;;;;;;;0.05;0.05;;;22.50;39.20;;;;;;5071892;28;20528;-47
2023/10/16 06:38:27;;;;;;;0.00;0.00;;;22.40;39.20;;;;;;5071975;28;20709;-46
2023/10/16 06:40:58;;;;;;;0.00;0.00;;;22.40;39.30;;;;;;5072514;28;20318;-50
2023/10/16 06:43:34;;;;;;;0.00;0.00;;;22.40;39.30;;;;;;5071598;28;20194;-44
2023/10/16 06:46:09;;;;;;;0.10;0.10;;;22.40;39.30;;;;;;5071216;28;20335;-49
2023/10/16 06:48:40;;;;;;;0.10;0.10;;;22.40;39.30;;;;;;5071719;28;20660;-48
2023/10/16 06:51:15;;;;;;;0.08;0.08;;;22.40;39.40;;;;;;5071797;28;20562;-47
2023/10/16 06:53:48;;;;;;;0.10;0.10;;;22.40;39.40;;;;;;5071789;28;20528;-44
2023/10/16 06:56:30;;;;;;;0.08;0.08;;;22.40;39.40;;;;;;5072295;28;20226;-42
2023/10/16 06:59:02;;;;;;;0.00;0.00;;;22.40;39.30;;;;;;5091120;28;20222;-44
2023/10/16 07:01:34;;;;;;;0.10;0.10;;;22.30;39.30;;;;;;5089659;28;20304;-44
2023/10/16 07:04:06;;;;;;;0.10;0.10;;;22.30;39.30;;;;;;5090730;28;20314;-46
2023/10/16 07:06:42;;;;;;;0.10;0.10;;;22.30;39.30;;;;;;5091727;28;20236;-46
2023/10/16 07:09:16;;;;;;;0.10;0.10;;;22.30;39.30;;;;;;5092139;28;20602;-46
2023/10/16 07:11:47;;;;;;;0.10;0.10;;;22.30;39.20;;;;;;5091156;28;20273;-46
2023/10/16 07:14:19;;;;;;;0.08;0.08;;;22.30;39.30;;;;;;5091196;28;20208;-44
2023/10/16 07:16:50;;;;;;;0.10;0.10;;;22.20;39.20;;;;;;5091930;28;20290;-47
2023/10/16 07:19:22;;;;;;;0.10;0.10;;;22.20;39.30;;;;;;5091935;28;20570;-47
2023/10/16 07:21:54;;;;;;;0.10;0.10;;;22.20;39.30;;;;;;5091509;28;20357;-47
2023/10/16 07:24:27;;;;;;;0.00;0.00;;;22.20;39.30;;;;;;5091448;28;20233;-48
2023/10/16 07:27:00;;;;;;;0.00;0.00;;;22.20;39.40;;;;;;5091598;28;20222;-46
2023/10/16 07:29:32;;;;;;;0.10;0.10;;;22.10;39.40;;;;;;5091210;28;20305;-47
2023/10/16 07:32:03;;;;;;;0.00;0.00;;;22.10;39.40;;;;;;5091939;28;20579;-47
2023/10/16 07:34:34;;;;;;;0.10;0.10;;;22.10;39.50;;;;;;5083899;28;20240;-51
2023/10/16 07:37:07;;;;;;;0.00;0.00;;;22.10;39.50;;;;;;5071580;28;20520;-51
2023/10/16 07:39:46;;;;;;;0.10;0.10;;;22.10;39.50;;;;;;5071750;28;20618;-49
2023/10/16 07:42:24;;;;;;;0.10;0.10;;;22.10;39.60;;;;;;5071395;28;20240;-43
2023/10/16 07:44:56;;;;;;;0.10;0.10;;;22.10;39.60;;;;;;5072653;28;20679;-43
2023/10/16 07:47:27;;;;;;;0.10;0.10;;;22.10;39.60;;;;;;5070799;28;20622;-46
2023/10/16 07:50:00;;;;;;;0.10;0.10;;;22.10;39.60;;;;;;5070799;28;20194;-48
2023/10/16 07:52:33;;;;;;;0.00;0.00;;;22.00;39.50;;;;;;5070925;28;20203;-50
2023/10/16 07:55:09;;;;;;;0.10;0.10;;;22.00;39.50;;;;;;5070892;28;20259;-49
2023/10/16 07:57:43;;;;;;;0.10;0.10;;;22.00;39.50;;;;;;5072152;28;20688;-46
2023/10/16 08:00:15;;;;;;;0.10;0.10;;;22.00;39.60;;;;;;5074935;28;20558;-48
2023/10/16 08:02:47;;;;;;;0.00;0.00;;;21.90;39.50;;;;;;5074581;28;20252;-50
2023/10/16 08:05:18;;;;;;;0.10;0.10;;;21.90;39.50;;;;;;5074402;28;20657;-50
2023/10/16 08:07:52;;;;;;;0.10;0.10;;;21.90;39.60;;;;;;5074800;28;20219;-49
2023/10/16 08:10:41;;;;;;;0.10;0.10;;;21.90;39.60;;;;;;5074870;28;20259;-47
2023/10/16 08:13:17;;;;;;;0.00;0.00;;;21.90;39.70;;;;;;5074356;28;20563;-49
2023/10/16 08:15:49;;;;;;;0.10;0.10;;;21.80;39.60;;;;;;5083540;28;20584;-52
2023/10/16 08:18:25;;;;;;;0.05;0.05;;;21.80;39.70;;;;;;5094600;28;20244;-49
2023/10/16 08:21:06;;;;;;;0.10;0.10;;;21.80;39.70;;;;;;5095038;28;20264;-48
2023/10/16 08:23:38;;;;;;;0.00;0.00;;;21.80;39.70;;;;;;5094733;28;20652;-49
2023/10/16 08:26:19;;;;;;;0.10;0.10;;;21.80;39.70;;;;;;5095003;28;20653;-51
2023/10/16 08:28:51;;;;;;;0.10;0.10;;;21.70;39.70;;;;;;5093675;28;20289;-50
2023/10/16 08:31:31;;;;;;;0.10;0.10;;;21.70;39.70;;;;;;5094010;28;20503;-52
2023/10/16 08:34:03;;;;;;;0.00;0.00;;;21.70;39.80;;;;;;5094334;28;20216;-51
2023/10/16 08:36:34;;;;;;;0.10;0.10;;;21.70;39.70;;;;;;5094773;28;20198;-48
2023/10/16 08:39:10;;;;;;;0.10;0.10;;;21.70;39.80;;;;;;5094306;28;20608;-51
2023/10/16 08:41:51;;;;;;;0.00;0.00;;;21.60;39.70;;;;;;5095208;28;20653;-46
2023/10/16 08:44:24;;;;;;;0.00;0.00;;;21.60;39.70;;;;;;5094098;28;20237;-51
2023/10/16 08:47:15;;;;;;;0.08;0.08;;;21.60;39.80;;;;;;5094676;28;20297;-46
2023/10/16 08:49:53;;;;;;;0.10;0.10;;;21.60;39.80;;;;;;5094241;28;20337;-49
2023/10/16 08:52:33;;;;;;;0.10;0.10;;;21.60;39.80;;;;;;5094123;28;20518;-49
2023/10/16 08:55:14;;;;;;;0.10;0.10;;;21.50;39.80;;;;;;5094168;28;20292;-48
2023/10/16 08:57:50;;;;;;;0.10;0.10;;;21.50;39.80;;;;;;5093293;28;20669;-47
2023/10/16 09:00:23;;;;;;;0.10;0.10;;;21.50;39.90;;;;;;5094031;28;20268;-48
2023/10/16 09:02:56;;;;;;;0.10;0.10;;;21.50;39.90;;;;;;5093431;28;20537;-49
2023/10/16 09:05:27;;;;;;;0.10;0.10;;;21.50;40.00;;;;;;5078318;28;20268;-52
2023/10/16 09:07:59;;;;;;;0.05;0.05;;;21.50;40.00;;;;;;5086237;28;20210;-48
2023/10/16 09:10:30;;;;;;;0.10;0.10;;;21.50;40.00;;;;;;5084964;28;20581;-52
2023/10/16 09:13:16;;;;;;;0.03;0.03;;;21.50;40.00;;;;;;5073015;28;20264;-50
2023/10/16 09:15:47;;;;;;;0.10;0.10;;;21.40;40.00;;;;;;5073497;28;20594;-49
2023/10/16 09:18:21;;;;;;;0.10;0.10;;;21.40;40.00;;;;;;5072771;28;20311;-52
2023/10/16 09:21:00;;;;;;;0.10;0.10;;;21.40;40.00;;;;;;5073306;28;20283;-48
2023/10/16 09:23:38;;;;;;;0.08;0.08;;;21.40;40.00;;;;;;5073723;28;20265;-48
2023/10/16 09:26:10;;;;;;;0.10;0.10;;;21.40;40.00;;;;;;5073363;28;20578;-50
2023/10/16 09:28:44;;;;;;;0.00;0.00;;;21.40;40.00;;;;;;5072250;28;20215;-51
2023/10/16 09:31:18;;;;;;;0.10;0.10;;;21.30;40.00;;;;;;5072819;28;20237;-47
2023/10/16 09:33:50;;;;;;;0.10;0.10;;;21.30;40.00;;;;;;5072862;28;20268;-48
2023/10/16 09:36:23;;;;;;;0.15;0.15;;;21.30;40.00;;;;;;5077878;28;20550;-49
2023/10/16 09:38:56;;;;;;;0.10;0.10;;;21.30;40.10;;;;;;5093061;28;20221;-48
2023/10/16 09:44:36;;;;;;;0.10;0.10;;;21.20;40.10;;;;;;5088200;28;20197;-47
2023/10/16 09:49:58;;;;;;;0.10;0.10;;;21.20;40.20;;;;;;5089085;28;20201;-44
2023/10/16 09:52:31;;;;;;;0.10;0.10;;;21.20;40.20;;;;;;5091678;28;20273;-50
2023/10/16 09:55:05;;;;;;;0.00;0.00;;;21.20;40.20;;;;;;5092927;28;20194;-47
2023/10/16 09:57:38;;;;;;;0.10;0.10;;;21.20;40.30;;;;;;5093088;28;20213;-46
2023/10/16 10:00:28;;;;;;;0.10;0.10;;;21.20;40.30;;;;;;5092889;28;20613;-52
2023/10/16 10:03:05;;;;;;;0.10;0.10;;;21.20;40.90;;;;;;5092402;28;20221;-49
2023/10/16 10:05:47;;;;;;;0.10;0.10;;;21.10;40.20;;;;;;5092969;28;20568;-49
2023/10/16 10:08:27;;;;;;;0.00;0.00;;;21.10;40.20;;;;;;5092875;28;20568;-50
2023/10/16 10:11:17;;;;;;;0.10;0.10;;;21.10;40.20;;;;;;5093092;28;20282;-47
2023/10/16 10:14:09;;;;;;;0.10;0.10;;;21.10;40.20;;;;;;5092522;28;20194;-50
2023/10/16 10:16:47;;;;;;;0.10;0.10;;;21.10;40.20;;;;;;5093163;28;20194;-46
2023/10/16 10:19:35;;;;;;;0.10;0.10;;;21.10;40.20;;;;;;5092843;28;20557;-43
2023/10/16 10:22:17;;;;;;;0.03;0.03;;;21.00;40.20;;;;;;5091593;28;20194;-49
2023/10/16 10:24:53;;;;;;;0.00;0.00;;;21.00;40.30;;;;;;5092127;28;20186;-46
2023/10/16 10:27:24;;;;;;;0.10;0.10;;;21.00;40.30;;;;;;5092085;28;20218;-49
2023/10/16 10:30:03;;;;;;;0.10;0.10;;;21.00;40.30;;;;;;5092035;28;20594;-50
2023/10/16 10:32:37;;;;;;;0.10;0.10;;;21.00;40.40;;;;;;5091958;28;20524;-46
2023/10/16 10:35:26;;;;;;;0.03;0.03;;;20.90;40.40;;;;;;5092265;28;20541;-48
2023/10/16 10:38:20;;;;;;;0.15;0.15;;;20.90;40.40;;;;;;5092260;28;20618;-48
2023/10/16 10:41:18;;;;;;;0.10;0.10;;;20.90;41.00;;;;;;5092447;28;20621;-48
2023/10/16 10:43:50;;;;;;;0.10;0.10;;;20.90;40.40;;;;;;5091774;28;20193;-47
2023/10/16 10:46:30;;;;;;;0.10;0.10;;;20.90;40.40;;;;;;5092247;28;20630;-51
2023/10/16 10:49:07;;;;;;;0.05;0.05;;;20.90;40.50;;;;;;5092179;28;20812;-48
2023/10/16 10:51:44;;;;;;;0.10;0.10;;;20.80;40.40;;;;;;5091917;28;20591;-48
2023/10/16 10:54:15;;;;;;;0.10;0.10;;;20.80;40.40;;;;;;5091689;28;20570;-48
2023/10/16 10:56:48;;;;;;;0.10;0.10;;;20.80;40.40;;;;;;5091155;28;20279;-49
2023/10/16 10:59:40;;;;;;;0.00;0.00;;;20.80;40.40;;;;;;5091214;28;20576;-47
2023/10/16 11:02:21;;;;;;;0.10;0.10;;;20.80;40.50;;;;;;5092648;28;20269;-46
2023/10/16 11:04:58;;;;;;;0.10;0.10;;;20.80;40.40;;;;;;5092727;28;20198;-47
2023/10/16 11:07:39;;;;;;;0.10;0.10;;;20.80;40.40;;;;;;5092299;28;20561;-47
2023/10/16 11:10:12;;;;;;;0.00;0.00;;;20.70;40.50;;;;;;5080165;28;20648;-50
2023/10/16 11:12:44;;;;;;;0.10;0.10;;;20.70;40.50;;;;;;5071610;28;20582;-53
2023/10/16 11:15:19;;;;;;;0.10;0.10;;;20.70;40.50;;;;;;5071802;28;20543;-49
2023/10/16 11:17:52;;;;;;;0.10;0.10;;;20.70;41.20;;;;;;5071793;28;20258;-48
2023/10/16 11:20:32;;;;;;;0.10;0.10;;;20.70;40.60;;;;;;5071901;28;20245;-50
2023/10/16 11:23:12;;;;;;;0.10;0.10;;;20.70;40.60;;;;;;5071691;28;20575;-50
2023/10/16 11:25:45;;;;;;;0.10;0.10;;;20.70;40.60;;;;;;5071882;28;20562;-49
2023/10/16 11:28:21;;;;;;;0.00;0.00;;;20.70;40.60;;;;;;5071523;28;20281;-49
2023/10/16 11:30:55;;;;;;;0.00;0.00;;;20.70;40.60;;;;;;5078255;28;20318;-49
2023/10/16 11:33:34;;;;;;;0.10;0.10;;;20.70;40.60;;;;;;5094787;28;20543;-49
2023/10/16 11:36:08;;;;;;;0.00;0.00;;;20.60;40.60;;;;;;5075738;28;20638;-50
2023/10/16 11:38:41;;;;;;;0.10;0.10;;;20.60;40.60;;;;;;5075776;28;20217;-47
2023/10/16 11:41:16;;;;;;;0.10;0.10;;;20.60;40.50;;;;;;5076104;28;20194;-47
2023/10/16 11:43:51;;;;;;;0.00;0.00;;;20.60;40.50;;;;;;5075578;28;20612;-45
2023/10/16 11:46:33;;;;;;;0.10;0.10;;;20.60;40.60;;;;;;5075241;28;20591;-41
2023/10/16 11:49:22;;;;;;;0.05;0.05;;;20.60;40.60;;;;;;5075379;28;20669;-44
2023/10/16 11:51:57;;;;;;;0.10;0.10;;;20.50;40.50;;;;;;5075010;28;20597;-41
2023/10/16 11:54:30;;;;;;;0.10;0.10;;;20.50;40.60;;;;;;5074871;28;20259;-45
2023/10/16 11:57:01;;;;;;;0.10;0.10;;;20.50;40.60;;;;;;5074493;28;20191;-47
2023/10/16 11:59:33;;;;;;;0.10;0.10;;;20.50;40.70;;;;;;5074768;28;20618;-50
2023/10/16 12:02:11;;;;;;;0.10;0.10;;;20.50;40.70;;;;;;5075171;28;20713;-47
2023/10/16 12:04:42;;;;;;;0.10;0.10;;;20.50;40.80;;;;;;5075283;28;20234;-50
2023/10/16 12:07:15;;;;;;;0.15;0.15;;;20.50;40.80;;;;;;5075492;28;20556;-42
2023/10/16 12:09:51;;;;;;;0.03;0.03;;;20.50;40.80;;;;;;5074972;28;20213;-42
2023/10/16 12:12:24;;;;;;;0.10;0.10;;;20.40;40.80;;;;;;5074903;28;20271;-42
2023/10/16 12:14:56;;;;;;;0.10;0.10;;;20.40;40.80;;;;;;5074458;28;20342;-46
2023/10/16 12:17:28;;;;;;;0.10;0.10;;;20.40;40.80;;;;;;5075651;28;20238;-44
2023/10/16 12:20:00;;;;;;;0.10;0.10;;;20.40;40.80;;;;;;5094321;28;20536;-46
2023/10/16 12:22:34;;;;;;;0.10;0.10;;;20.40;40.80;;;;;;5095067;28;20277;-46
2023/10/16 12:25:08;;;;;;;0.10;0.10;;;20.40;40.80;;;;;;5095008;28;20213;-46
2023/10/16 12:27:39;;;;;;;0.10;0.10;;;20.40;40.80;;;;;;5094737;28;20306;-47
2023/10/16 12:30:13;;;;;;;0.10;0.10;;;20.40;40.80;;;;;;5094826;28;20627;-46
2023/10/16 12:32:46;;;;;;;0.10;0.10;;;20.40;40.80;;;;;;5095008;28;20654;-41
2023/10/16 12:35:18;;;;;;;0.10;0.10;;;20.30;40.70;;;;;;5094907;28;20539;-45
2023/10/16 12:37:55;;;;;;;0.10;0.10;;;20.30;40.80;;;;;;5094823;28;20661;-49
2023/10/16 12:40:27;;;;;;;0.10;0.10;;;20.30;40.80;;;;;;5095212;28;20571;-45
2023/10/16 12:43:00;;;;;;;0.10;0.10;;;20.30;40.80;;;;;;5094336;28;20594;-50
2023/10/16 12:45:32;;;;;;;0.00;0.00;;;20.30;40.90;;;;;;5093453;28;20267;-46
2023/10/16 12:48:03;;;;;;;0.10;0.10;;;20.30;40.90;;;;;;5094082;28;20566;-52
2023/10/16 12:50:34;;;;;;;0.10;0.10;;;20.30;41.00;;;;;;5095294;28;20597;-51
2023/10/16 12:53:08;;;;;;;0.10;0.10;;;20.30;41.00;;;;;;5094598;28;20539;-49
2023/10/16 12:55:40;;;;;;;0.10;0.10;;;20.30;41.00;;;;;;5094822;28;20316;-50
2023/10/16 12:58:12;;;;;;;0.10;0.10;;;20.30;41.00;;;;;;5094583;28;20636;-47
2023/10/16 13:00:46;;;;;;;0.10;0.10;;;20.30;41.00;;;;;;5094716;28;20579;-44
2023/10/16 13:03:19;;;;;;;0.10;0.10;;;20.30;41.00;;;;;;5094419;28;20604;-46
2023/10/16 13:05:50;;;;;;;0.20;0.20;;;20.30;41.00;;;;;;5093790;28;20569;-52
2023/10/16 13:08:26;;;;;;;0.10;0.10;;;20.20;41.00;;;;;;5094145;28;20614;-48
2023/10/16 13:10:57;;;;;;;0.10;0.10;;;20.20;40.90;;;;;;5094037;28;20296;-51
2023/10/16 13:13:28;;;;;;;0.10;0.10;;;20.20;41.00;;;;;;5094285;28;20190;-44
2023/10/16 13:15:59;;;;;;;0.00;0.00;;;20.20;40.90;;;;;;5090202;28;20265;-48
2023/10/16 13:18:30;;;;;;;0.10;0.10;;;20.20;41.00;;;;;;5093191;28;20206;-46
2023/10/16 13:21:12;;;;;;;0.10;0.10;;;20.20;41.00;;;;;;5093823;28;20571;-44
2023/10/16 13:23:46;;;;;;;0.10;0.10;;;20.20;41.00;;;;;;5093507;28;20597;-46
2023/10/16 13:26:17;;;;;;;0.10;0.10;;;20.20;41.00;;;;;;5093555;28;20566;-46
2023/10/16 13:28:48;;;;;;;0.10;0.10;;;20.20;41.70;;;;;;5093435;28;20292;-45
2023/10/16 13:31:19;;;;;;;0.10;0.10;;;20.10;41.00;;;;;;5090516;28;20190;-46
2023/10/16 13:33:51;;;;;;;0.10;0.10;;;20.10;41.10;;;;;;5073470;28;20213;-46
2023/10/16 13:36:22;;;;;;;0.10;0.10;;;20.20;41.20;;;;;;5073237;28;20584;-47
2023/10/16 13:38:56;;;;;;;0.10;0.10;;;20.10;41.10;;;;;;5073121;28;20551;-46
2023/10/16 13:41:28;;;;;;;0.20;0.20;;;20.10;41.10;;;;;;5073838;28;20269;-47
2023/10/16 13:43:59;;;;;;;0.00;0.00;;;20.10;41.20;;;;;;5073167;28;20623;-47
2023/10/16 13:46:30;;;;;;;0.10;0.10;;;20.10;41.20;;;;;;5072877;28;20540;-50
2023/10/16 13:49:02;;;;;;;0.00;0.00;;;20.10;41.10;;;;;;5072726;28;20307;-47
2023/10/16 13:51:35;;;;;;;0.00;0.00;;;20.10;41.10;;;;;;5073676;28;20541;-48
2023/10/16 13:54:11;;;;;;;0.10;0.10;;;20.10;41.10;;;;;;5073022;28;20560;-46
2023/10/16 13:56:43;;;;;;;0.05;0.05;;;20.10;41.10;;;;;;5073113;28;20194;-48
2023/10/16 13:59:14;;;;;;;0.10;0.10;;;20.10;41.10;;;;;;5072793;28;20589;-51
2023/10/16 14:01:46;;;;;;;0.10;0.10;;;20.00;41.10;;;;;;5073165;28;20202;-48
2023/10/16 14:04:18;;;;;;;0.00;0.00;;;20.00;41.10;;;;;;5072881;28;20217;-49
2023/10/16 14:06:53;;;;;;;0.00;0.00;;;20.00;41.10;;;;;;5073037;28;20595;-52
2023/10/16 14:09:32;;;;;;;0.10;0.10;;;20.00;41.10;;;;;;5073002;28;20677;-49
2023/10/16 14:12:04;;;;;;;0.10;0.10;;;20.00;41.20;;;;;;5072659;28;20593;-47
2023/10/16 14:14:35;;;;;;;0.10;0.10;;;20.00;41.20;;;;;;5072443;28;20528;-48
2023/10/16 14:17:16;;;;;;;0.03;0.03;;;20.00;41.20;;;;;;5072488;28;20297;-42
2023/10/16 14:19:48;;;;;;;0.08;0.08;;;20.00;41.30;;;;;;5089323;28;20623;-48
2023/10/16 14:22:23;;;;;;;0.10;0.10;;;20.00;41.30;;;;;;5092604;28;20545;-50
2023/10/16 14:24:56;;;;;;;0.10;0.10;;;20.00;41.30;;;;;;5092775;28;20216;-52
2023/10/16 14:27:27;;;;;;;0.00;0.00;;;20.00;41.40;;;;;;5092171;28;20275;-51
2023/10/16 14:30:01;;;;;;;0.10;0.10;;;20.00;41.30;;;;;;5092209;28;20268;-48
2023/10/16 14:32:32;;;;;;;0.00;0.00;;;19.90;41.30;;;;;;5092499;28;20539;-50
2023/10/16 14:35:04;;;;;;;0.05;0.05;;;19.90;41.30;;;;;;5092362;28;20558;-49
2023/10/16 14:37:35;;;;;;;0.03;0.03;;;19.90;41.30;;;;;;5092481;28;20554;-53
2023/10/16 14:40:15;;;;;;;0.10;0.10;;;19.90;41.30;;;;;;5092563;28;20311;-56
2023/10/16 14:42:46;;;;;;;0.10;0.10;;;19.90;41.30;;;;;;5092358;28;20545;-50
2023/10/16 14:45:19;;;;;;;0.10;0.10;;;19.90;41.30;;;;;;5091801;28;20298;-49
2023/10/16 14:47:52;;;;;;;0.05;0.05;;;19.90;41.30;;;;;;5092188;28;20633;-48